Arago, Minnesota
Current Conditions -  °F | °C
As of 7:53 AM on Thursday 29 Jan 2015 (Local Time) from KPKD Reporting Station
Overcast Overcast  
Wind Chill:   Ceiling: 1200
Heat Index: 18°   Visibility: 10mi
Dew Point: 14°   Wind: 16mph
Humidity: 84%   Direction: 330°NNW
Pressure: 30.19"   Gusts: 25mph
Location:  46.9966°N, 95.0029°W
Report Text: KPKD 291353Z AUTO 33014G22KT 10SM OVC012 M08/M10 A3019 RMK AO2 SLP248 T10781100
Loading
Personal Weather Stations






























Interactive Weather Map New forecast layout! Learn more

10-Day Weather Forecast

Advertisements
Track Severe Weather on mobile